EDT,Max TemperatureF,Mean TemperatureF,Min TemperatureF,Max Dew PointF,MeanDew PointF,Min DewpointF,Max Humidity, Mean Humidity, Min Humidity, Max Sea Level PressureIn, Mean Sea Level PressureIn, Min Sea Level PressureIn, Max VisibilityMiles, Mean VisibilityMiles, Min VisibilityMiles, Max Wind SpeedMPH, Mean Wind SpeedMPH, Max Gust SpeedMPH,PrecipitationIn, CloudCover, Events, WindDirDegrees
2012-8-1,87,74,60,68,63,55,100,81,33,30.06,30.01,29.94,10,9,4,10,1,,0.00,4,,214
2012-8-2,89,74,60,70,62,57,100,75,33,30.05,30.00,29.94,10,7,0,8,1,,0.00,3,Fog,241
2012-8-3,84,72,60,68,65,61,100,83,58,30.13,30.06,30.01,10,8,3,8,2,,0.00,3,Rain,156
2012-8-4,80,72,64,68,65,63,100,82,54,30.26,30.19,30.13,10,9,3,10,1,,0.00,5,Rain,142
2012-8-5,86,75,64,68,65,61,100,78,43,30.29,30.24,30.19,10,9,4,9,1,21,0.00,4,Rain,161
2012-8-6,84,74,64,70,65,61,100,84,48,30.24,30.17,30.11,10,9,1,8,1,,0.01,5,Rain,206
2012-8-7,80,73,66,70,67,63,100,88,58,30.13,30.09,30.04,10,10,7,8,1,,0.00,5,Rain,236
2012-8-8,89,76,62,68,64,57,100,78,33,30.11,30.08,30.03,10,9,5,8,1,,0.00,4,,211
2012-8-9,82,71,60,70,63,61,100,91,51,30.10,30.03,29.94,10,7,0,7,0,29,0.51,5,Fog-Rain,157
2012-8-10,78,70,62,68,64,63,100,96,61,29.96,29.93,29.86,10,7,4,7,0,,0.00,7,Rain,123
2012-8-11,80,68,55,66,60,52,100,80,42,30.06,29.97,29.93,10,8,4,9,1,,0.01,5,Rain,236
2012-8-12,82,66,50,63,54,39,100,73,21,30.12,30.07,30.02,10,8,0,6,1,,0.00,2,Fog,231
2012-8-13,82,68,53,63,55,37,100,79,20,30.13,30.09,30.04,10,7,0,9,1,,0.02,4,Fog-Rain,224
2012-8-14,82,68,53,64,57,52,100,78,37,30.10,30.03,29.95,10,9,5,13,1,,0.00,3,,247
2012-8-15,80,68,55,64,58,50,100,79,34,30.10,30.04,30.00,10,7,0,9,1,17,0.00,3,Fog,309
2012-8-16,84,68,53,63,53,45,100,72,26,30.15,30.10,30.01,10,7,0,9,1,,0.00,3,Fog,295
2012-8-17,78,66,53,63,58,54,100,77,44,30.12,30.02,29.95,10,8,4,7,1,,0.00,1,,299
2012-8-18,80,68,55,68,61,55,100,83,44,30.02,29.97,29.90,10,8,0,6,0,12,0.17,5,Fog-Rain,249
2012-8-19,73,66,60,68,62,57,100,90,57,29.98,29.94,29.90,10,8,3,6,0,,0.35,7,Rain,305
2012-8-20,78,66,53,63,55,41,100,76,26,30.07,29.99,29.95,10,7,0,8,1,,0.00,3,Fog,288
2012-8-21,78,64,50,61,54,46,100,78,32,30.15,30.10,30.06,10,8,0,7,1,,0.00,3,Fog-Rain,267
2012-8-22,80,65,50,61,52,41,100,73,24,30.21,30.16,30.11,10,8,0,8,1,,0.00,3,Fog,246
2012-8-23,80,70,59,64,59,50,100,82,34,30.24,30.19,30.14,10,7,0,6,1,,0.14,6,Fog-Rain,192
2012-8-24,82,70,57,64,59,50,100,83,35,30.25,30.20,30.14,10,7,0,5,0,,0.01,5,Fog-Rain,130
2012-8-25,82,70,59,66,60,55,100,87,39,30.26,30.21,30.13,10,5,0,8,0,,0.13,6,Fog-Rain,87
2012-8-26,84,72,59,66,60,55,100,83,37,30.28,30.22,30.15,10,6,0,5,0,,0.00,5,Fog,120
2012-8-27,87,72,57,66,59,46,100,77,24,30.25,30.16,30.08,10,6,0,8,1,,0.00,4,Fog,125
2012-8-28,78,68,59,70,63,59,100,90,57,30.13,30.09,30.04,10,7,0,5,0,,0.02,7,Fog-Rain,114
2012-8-29,86,75,64,70,65,61,100,87,45,30.10,30.06,30.01,10,9,5,6,0,,0.01,5,Rain,124
2012-8-30,78,71,64,70,66,64,100,88,61,30.25,30.16,30.09,10,8,1,7,1,,0.00,5,Rain,131
2012-8-31,87,74,62,68,64,61,100,80,43,30.34,30.27,30.21,10,7,0,6,0,,0.00,4,Fog,267